Time;durP1;ratioP1;P1;durP2;ratioP2;P2;SDS_P1;SDS_P2;PMS_P1;PMS_P2;Temp;Humidity;BMP_temperature;BMP_pressure;BME280_temperature;BME280_humidity;BME280_pressure;Samples;Min_cycle;Max_cycle;Signal;HPM_P1;HPM_P2
2021/12/20 00:00:25;;;;;;;4.10;3.60;;;;;;;-4.31;84.33;97086.94;6192245;23;20020;-77
2021/12/20 00:02:59;;;;;;;5.90;5.50;;;;;;;-4.37;84.42;97092.28;6244655;23;20097;-77
2021/12/20 00:05:25;;;;;;;3.45;3.25;;;;;;;-4.38;84.99;97088.09;6217779;23;20367;-77
2021/12/20 00:07:52;;;;;;;4.65;4.35;;;;;;;-4.37;84.41;97088.91;6216588;23;20031;-76
2021/12/20 00:10:18;;;;;;;3.70;3.50;;;;;;;-4.41;84.00;97090.75;6243698;23;20120;-78
2021/12/20 00:12:45;;;;;;;4.90;4.60;;;;;;;-4.39;84.26;97093.25;6241958;23;20507;-78
2021/12/20 00:15:11;;;;;;;3.60;3.40;;;;;;;-4.39;83.71;97103.44;6217578;23;20020;-78
2021/12/20 00:17:37;;;;;;;5.40;5.00;;;;;;;-4.37;83.43;97116.91;6245023;23;20038;-77
2021/12/20 00:20:04;;;;;;;9.75;3.17;;;;;;;-4.39;83.22;97108.53;6217568;23;20337;-78
2021/12/20 00:22:30;;;;;;;3.20;3.00;;;;;;;-4.39;82.48;97116.16;6192845;23;20492;-78
2021/12/20 00:24:55;;;;;;;4.63;4.05;;;;;;;-4.41;82.78;97111.13;6192384;23;20016;-78
2021/12/20 00:27:21;;;;;;;3.13;2.92;;;;;;;-4.39;82.68;97119.53;6217857;23;20059;-78
2021/12/20 00:29:48;;;;;;;3.42;3.22;;;;;;;-4.42;82.61;97114.56;6218444;23;20081;-78
2021/12/20 00:32:14;;;;;;;4.15;3.85;;;;;;;-4.44;82.59;97125.69;6193491;23;20040;-78
2021/12/20 00:34:41;;;;;;;4.28;3.97;;;;;;;-4.42;82.68;97129.00;6245726;23;20022;-78
2021/12/20 00:40:20;;;;;;;5.78;3.25;;;;;;;-4.39;82.84;97144.16;6244570;23;20020;-78
2021/12/20 00:42:42;;;;;;;4.68;4.38;;;;;;;-4.50;82.36;97131.84;6170975;23;20051;-78
2021/12/20 00:45:09;;;;;;;4.65;4.35;;;;;;;-4.48;82.59;97140.22;6244008;23;20345;-79
2021/12/20 00:47:35;;;;;;;2.90;2.80;;;;;;;-4.52;82.77;97133.63;6143664;23;20016;-78
2021/12/20 00:50:02;;;;;;;4.47;3.10;;;;;;;-4.53;83.15;97144.69;6167709;23;20020;-78
2021/12/20 00:52:28;;;;;;;3.85;3.55;;;;;;;-4.52;82.96;97135.34;6193036;23;20049;-78
2021/12/20 00:54:54;;;;;;;3.30;3.10;;;;;;;-4.53;83.07;97141.31;6244497;23;20123;-78
2021/12/20 00:57:20;;;;;;;3.38;3.08;;;;;;;-4.52;82.77;97154.00;6221597;23;20409;-78
2021/12/20 00:59:46;;;;;;;4.45;4.05;;;;;;;-4.59;83.03;97147.47;6218482;23;20027;-79
2021/12/20 01:02:12;;;;;;;4.20;3.90;;;;;;;-4.56;83.11;97151.59;6217627;23;20016;-79
2021/12/20 01:04:38;;;;;;;3.20;3.00;;;;;;;-4.56;83.32;97170.25;6217984;23;20074;-78
2021/12/20 01:07:04;;;;;;;3.47;3.17;;;;;;;-4.61;83.45;97161.94;6168340;23;20458;-78
2021/12/20 01:09:30;;;;;;;3.92;3.72;;;;;;;-4.63;83.58;97163.75;6246121;23;20464;-78
2021/12/20 01:12:02;;;;;;;3.10;2.90;;;;;;;-4.65;83.52;97168.06;6197104;23;20020;-79
2021/12/20 01:14:31;;;;;;;2.70;2.50;;;;;;;-4.65;83.50;97168.06;6172237;23;20031;-80
2021/12/20 01:17:03;;;;;;;5.75;3.47;;;;;;;-4.67;83.34;97174.91;6248567;23;20012;-78
2021/12/20 01:19:29;;;;;;;3.72;3.53;;;;;;;-4.70;82.94;97182.66;6247596;23;20487;-79
2021/12/20 01:21:55;;;;;;;3.03;2.83;;;;;;;-4.74;82.95;97181.09;6219757;23;20019;-79
2021/12/20 01:24:21;;;;;;;2.90;2.75;;;;;;;-4.74;83.34;97188.75;6197752;23;20016;-80
2021/12/20 01:26:47;;;;;;;2.42;2.22;;;;;;;-4.80;83.81;97194.91;6220846;23;20027;-79
2021/12/20 01:29:14;;;;;;;3.05;2.83;;;;;;;-4.89;83.78;97184.22;6171684;23;20023;-79
2021/12/20 01:31:40;;;;;;;2.78;2.58;;;;;;;-4.91;84.52;97188.56;6196072;23;20020;-78
2021/12/20 01:34:06;;;;;;;6.78;3.28;;;;;;;-4.92;84.53;97187.72;6218412;23;20047;-78
2021/12/20 01:36:32;;;;;;;3.70;3.45;;;;;;;-4.96;83.69;97198.06;6168813;23;20020;-79
2021/12/20 01:38:58;;;;;;;2.67;2.58;;;;;;;-4.95;83.39;97194.63;6194856;23;20356;-79
2021/12/20 01:41:24;;;;;;;2.53;2.33;;;;;;;-4.99;83.22;97198.16;6221615;23;20016;-78
2021/12/20 01:43:50;;;;;;;2.40;2.30;;;;;;;-4.99;83.65;97213.41;6245957;23;20011;-80
2021/12/20 01:46:16;;;;;;;4.15;2.97;;;;;;;-5.00;84.00;97211.75;6225253;23;20043;-80
2021/12/20 01:48:44;;;;;;;3.30;3.10;;;;;;;-5.22;84.30;97190.53;6227599;23;20510;-80
2021/12/20 01:53:42;;;;;;;2.80;2.53;;;;;;;-5.20;85.03;97219.28;6233698;23;20047;-80
2021/12/20 01:56:08;;;;;;;2.10;2.00;;;;;;;-5.21;84.53;97220.97;6198539;23;20456;-79
2021/12/20 01:58:34;;;;;;;2.90;2.53;;;;;;;-5.20;84.17;97220.06;6192696;23;20016;-78
2021/12/20 02:01:03;;;;;;;2.13;2.03;;;;;;;-5.25;83.91;97224.50;6167134;23;20023;-79
2021/12/20 02:03:30;;;;;;;1.90;1.80;;;;;;;-5.19;83.74;97236.16;6244138;23;20111;-79
2021/12/20 02:05:59;;;;;;;2.10;2.00;;;;;;;-5.29;83.92;97223.78;6242386;23;20082;-79
2021/12/20 02:08:28;;;;;;;2.75;2.55;;;;;;;-5.28;83.82;97237.31;6221066;23;20047;-78
2021/12/20 02:11:00;;;;;;;3.40;3.10;;;;;;;-5.30;84.29;97237.38;6248687;23;20020;-79
2021/12/20 02:13:29;;;;;;;2.10;2.00;;;;;;;-5.36;84.40;97245.19;6223024;23;20020;-79
2021/12/20 02:15:56;;;;;;;2.85;2.65;;;;;;;-5.41;84.33;97259.78;6199642;23;20070;-79
2021/12/20 02:18:22;;;;;;;3.25;3.05;;;;;;;-5.49;85.46;97241.41;6196587;23;20038;-80
2021/12/20 02:20:48;;;;;;;5.90;3.45;;;;;;;-5.50;85.77;97255.03;6171097;23;20028;-79
2021/12/20 02:23:14;;;;;;;2.45;2.25;;;;;;;-5.48;85.18;97262.56;6221508;23;20501;-79
2021/12/20 02:25:40;;;;;;;3.33;2.95;;;;;;;-5.52;84.46;97259.31;6220565;23;20099;-79
2021/12/20 02:28:11;;;;;;;2.60;2.40;;;;;;;-5.48;84.08;97265.94;6171023;23;20495;-79
2021/12/20 02:30:47;;;;;;;2.70;2.50;;;;;;;-5.47;83.46;97279.50;6172406;23;20031;-79
2021/12/20 02:38:43;;;;;;;2.40;2.25;;;;;;;-5.53;84.36;97283.03;6224026;23;20070;-80
2021/12/20 02:41:14;;;;;;;4.78;3.25;;;;;;;-5.58;85.65;97296.78;6259562;23;20047;-81
2021/12/20 02:43:58;;;;;;;2.75;2.58;;;;;;;-5.70;85.90;97284.47;6207888;23;20488;-81
2021/12/20 02:49:08;;;;;;;3.63;3.35;;;;;;;-5.71;86.74;97305.66;6224749;23;20016;-79
2021/12/20 02:51:34;;;;;;;2.50;2.40;;;;;;;-5.73;86.41;97310.81;6246716;23;20028;-80
2021/12/20 02:54:01;;;;;;;3.08;2.85;;;;;;;-5.81;86.92;97307.66;6218983;23;20078;-78
2021/12/20 02:56:27;;;;;;;3.15;2.95;;;;;;;-5.78;87.05;97317.72;6221340;23;20024;-79
2021/12/20 02:58:53;;;;;;;3.67;3.35;;;;;;;-5.87;87.51;97297.75;6219325;23;20024;-80
2021/12/20 03:01:20;;;;;;;3.35;3.15;;;;;;;-5.85;87.37;97312.00;6154027;23;20052;-82
2021/12/20 03:03:47;;;;;;;2.72;2.60;;;;;;;-5.85;86.77;97317.09;6240341;23;20016;-81
2021/12/20 03:06:18;;;;;;;2.42;2.22;;;;;;;-5.83;86.08;97324.66;6212832;23;20008;-79
2021/12/20 03:08:46;;;;;;;2.00;1.90;;;;;;;-5.85;85.12;97313.72;6214510;23;20016;-82
2021/12/20 03:11:13;;;;;;;2.65;2.45;;;;;;;-5.81;84.60;97325.44;6240475;23;20055;-81
2021/12/20 03:13:39;;;;;;;2.33;2.22;;;;;;;-5.96;84.44;97314.09;6242333;23;20024;-81
2021/12/20 03:16:05;;;;;;;3.03;2.83;;;;;;;-5.90;84.72;97334.22;6244386;23;20026;-80
2021/12/20 03:18:31;;;;;;;2.67;2.47;;;;;;;-5.90;84.66;97346.06;6188901;23;20027;-79
2021/12/20 03:20:57;;;;;;;2.58;2.38;;;;;;;-5.86;82.22;97334.97;6212721;23;20016;-79
2021/12/20 03:23:23;;;;;;;2.60;2.50;;;;;;;-5.86;82.57;97340.03;6236470;23;20012;-77
2021/12/20 03:25:49;;;;;;;2.38;2.28;;;;;;;-5.89;82.79;97345.22;6238342;23;20039;-79
2021/12/20 03:28:15;;;;;;;3.13;2.92;;;;;;;-5.91;82.69;97344.41;6265617;23;20051;-79
2021/12/20 03:30:41;;;;;;;2.28;2.17;;;;;;;-6.01;82.45;97333.69;6236790;23;20027;-81
2021/12/20 03:33:07;;;;;;;5.68;2.95;;;;;;;-5.99;81.80;97357.31;6230983;23;20020;-80
2021/12/20 03:35:33;;;;;;;3.10;2.90;;;;;;;-6.05;81.71;97351.63;6229214;23;20079;-81
2021/12/20 03:37:59;;;;;;;2.45;2.35;;;;;;;-6.10;81.38;97350.91;6178291;23;20020;-82
2021/12/20 03:40:25;;;;;;;2.53;2.42;;;;;;;-6.04;82.00;97371.88;6176276;23;20373;-81
2021/12/20 03:42:51;;;;;;;3.65;2.88;;;;;;;-6.06;82.29;97370.25;6202198;23;20027;-80
2021/12/20 03:45:17;;;;;;;2.25;2.10;;;;;;;-6.11;82.17;97367.00;6203973;23;20016;-81
2021/12/20 03:47:43;;;;;;;2.65;2.50;;;;;;;-6.12;81.39;97360.28;6205748;23;20024;-77
2021/12/20 03:50:10;;;;;;;2.63;2.53;;;;;;;-6.10;81.69;97368.69;6178598;23;20108;-81
2021/12/20 03:52:38;;;;;;;3.35;3.10;;;;;;;-6.18;83.08;97379.03;6178754;23;20074;-81
2021/12/20 03:55:09;;;;;;;3.28;3.08;;;;;;;-6.17;83.16;97379.88;6205227;23;20028;-81
2021/12/20 03:57:35;;;;;;;2.58;2.42;;;;;;;-6.21;83.34;97384.22;6232373;23;20071;-80
2021/12/20 04:00:01;;;;;;;2.53;2.33;;;;;;;-6.20;83.51;97395.19;6232469;23;20069;-81
2021/12/20 04:02:36;;;;;;;3.47;2.10;;;;;;;-6.25;83.74;97402.13;6234262;23;20020;-80
2021/12/20 04:05:02;;;;;;;2.70;2.50;;;;;;;-6.30;84.04;97404.78;6234619;23;20095;-81
2021/12/20 04:07:29;;;;;;;2.35;2.22;;;;;;;-6.35;84.29;97412.50;6207876;23;20107;-80
2021/12/20 04:09:55;;;;;;;2.38;2.28;;;;;;;-6.39;84.60;97413.47;6206868;23;20070;-80
2021/12/20 04:12:21;;;;;;;2.72;2.63;;;;;;;-6.47;84.43;97407.75;6258690;23;20040;-80
2021/12/20 04:14:47;;;;;;;2.33;2.17;;;;;;;-6.44;84.88;97425.44;6257436;23;20016;-78
2021/12/20 04:17:13;;;;;;;3.88;2.70;;;;;;;-6.46;84.21;97427.19;6156576;23;20058;-80
2021/12/20 04:19:39;;;;;;;2.50;2.40;;;;;;;-6.44;84.53;97439.81;6205049;23;20023;-80
2021/12/20 04:22:06;;;;;;;3.20;3.00;;;;;;;-6.49;84.08;97432.34;6258781;23;20043;-80
2021/12/20 04:24:32;;;;;;;2.25;2.15;;;;;;;-6.57;84.54;97431.72;6256959;23;20072;-80
2021/12/20 04:26:58;;;;;;;2.30;2.20;;;;;;;-6.60;84.45;97444.47;6258382;23;20020;-80
2021/12/20 04:29:24;;;;;;;2.50;2.40;;;;;;;-6.63;84.44;97441.19;6259024;23;20020;-80
2021/12/20 04:31:50;;;;;;;2.22;2.13;;;;;;;-6.67;84.19;97445.50;6236578;23;20055;-82
2021/12/20 04:34:16;;;;;;;2.05;1.95;;;;;;;-6.73;84.75;97450.72;6266931;23;20000;-81
2021/12/20 04:36:43;;;;;;;2.40;2.30;;;;;;;-6.75;84.94;97457.56;6214220;23;20026;-82
2021/12/20 04:39:13;;;;;;;2.80;2.60;;;;;;;-6.74;84.78;97461.72;6236924;23;20171;-81
2021/12/20 04:41:40;;;;;;;2.20;2.10;;;;;;;-6.78;85.28;97477.09;6237809;23;20094;-81
2021/12/20 04:44:07;;;;;;;2.70;2.55;;;;;;;-6.82;86.00;97480.56;6213677;23;20258;-80
2021/12/20 04:46:33;;;;;;;3.03;2.67;;;;;;;-6.89;85.84;97468.03;6215022;23;20019;-81
2021/12/20 04:48:59;;;;;;;3.10;2.90;;;;;;;-6.86;85.96;97482.31;6216139;23;20031;-81
2021/12/20 04:51:25;;;;;;;3.15;2.78;;;;;;;-6.89;86.32;97492.53;6241253;23;20369;-81
2021/12/20 04:53:51;;;;;;;2.42;2.33;;;;;;;-6.92;86.02;97480.78;6239739;23;20023;-81
2021/12/20 04:56:17;;;;;;;3.70;3.08;;;;;;;-6.90;85.75;97481.56;6212137;23;20020;-80
2021/12/20 04:58:43;;;;;;;2.20;2.10;;;;;;;-6.81;85.66;97503.34;6160452;23;20026;-81
2021/12/20 05:01:10;;;;;;;2.92;2.50;;;;;;;-6.79;84.05;97496.53;6211385;23;20021;-81
2021/12/20 05:03:36;;;;;;;2.78;2.58;;;;;;;-6.79;84.33;97499.06;6236307;23;20012;-82
2021/12/20 05:06:02;;;;;;;2.58;2.47;;;;;;;-6.90;83.70;97480.72;6266130;23;20000;-81
2021/12/20 05:08:34;;;;;;;2.80;2.63;;;;;;;-6.84;83.46;97505.97;6242710;23;20020;-80
2021/12/20 05:11:01;;;;;;;4.47;2.50;;;;;;;-6.87;82.98;97498.41;6262732;23;20020;-82
2021/12/20 05:13:27;;;;;;;2.78;2.58;;;;;;;-6.93;83.57;97509.53;6207286;23;20442;-79
2021/12/20 05:15:53;;;;;;;2.97;2.88;;;;;;;-6.97;83.30;97512.19;6234797;23;20008;-82
2021/12/20 05:18:19;;;;;;;2.30;2.20;;;;;;;-7.10;84.21;97510.81;6237308;23;20016;-80
2021/12/20 05:20:45;;;;;;;3.45;3.17;;;;;;;-7.04;84.45;97521.63;6209914;23;20095;-79
2021/12/20 05:23:11;;;;;;;2.92;2.72;;;;;;;-7.05;84.96;97519.97;6255969;23;20027;-78
2021/12/20 05:25:37;;;;;;;2.03;1.92;;;;;;;-7.05;84.65;97537.69;6226431;23;20019;-79
2021/12/20 05:28:04;;;;;;;3.28;3.08;;;;;;;-7.12;85.24;97527.72;6223433;23;20023;-79
2021/12/20 05:30:30;;;;;;;4.22;3.83;;;;;;;-7.10;85.11;97541.22;6193733;23;20016;-78
2021/12/20 05:32:56;;;;;;;1.90;1.80;;;;;;;-7.07;84.64;97541.97;6201521;23;20073;-78
2021/12/20 05:35:22;;;;;;;2.28;2.17;;;;;;;-7.11;85.70;97537.00;6248234;23;20371;-79
2021/12/20 05:37:48;;;;;;;3.83;3.53;;;;;;;-7.24;84.75;97512.81;6225597;23;20016;-79
2021/12/20 05:40:14;;;;;;;4.50;3.22;;;;;;;-7.11;84.31;97557.28;6213220;23;20066;-77
2021/12/20 05:42:40;;;;;;;2.35;2.15;;;;;;;-7.12;83.98;97556.44;6195265;23;20020;-77
2021/12/20 05:45:07;;;;;;;4.20;3.03;;;;;;;-7.13;84.57;97576.75;6247384;23;20016;-76
2021/12/20 05:47:33;;;;;;;3.13;2.92;;;;;;;-7.11;83.94;97568.25;6242609;23;20031;-79
2021/12/20 05:49:59;;;;;;;5.88;3.83;;;;;;;-7.17;84.03;97565.03;6248300;23;20024;-79
2021/12/20 05:52:25;;;;;;;3.63;3.33;;;;;;;-7.16;83.68;97577.63;6195423;23;20020;-78
2021/12/20 05:54:54;;;;;;;3.05;2.85;;;;;;;-7.16;84.19;97582.72;6249131;23;20016;-81
2021/12/20 05:57:20;;;;;;;2.42;2.30;;;;;;;-7.22;85.13;97584.53;6197785;23;20055;-79
2021/12/20 05:59:46;;;;;;;3.17;2.95;;;;;;;-7.14;84.29;97592.81;6249531;23;20043;-80
2021/12/20 06:02:13;;;;;;;1.90;1.85;;;;;;;-7.14;84.10;97598.72;6221609;23;20019;-78
2021/12/20 06:04:39;;;;;;;2.80;2.60;;;;;;;-7.12;84.54;97583.47;6197658;23;20047;-80
2021/12/20 06:07:05;;;;;;;3.00;2.75;;;;;;;-7.26;84.07;97575.34;6198602;23;20102;-79
2021/12/20 06:09:32;;;;;;;2.97;2.78;;;;;;;-7.22;84.09;97603.13;6220149;23;20023;-78
2021/12/20 06:11:59;;;;;;;5.65;3.83;;;;;;;-7.18;84.69;97604.72;6223720;23;20147;-81
2021/12/20 06:14:26;;;;;;;2.97;2.78;;;;;;;-7.15;83.92;97612.25;6223022;23;20020;-78
2021/12/20 06:16:55;;;;;;;4.45;2.83;;;;;;;-7.13;83.60;97619.84;6196660;23;20045;-78
2021/12/20 06:19:23;;;;;;;2.95;2.75;;;;;;;-7.16;83.93;97624.94;6196717;23;20020;-78
2021/12/20 06:21:49;;;;;;;2.85;2.65;;;;;;;-7.17;84.76;97635.97;6197373;23;20026;-77
2021/12/20 06:24:15;;;;;;;3.10;2.83;;;;;;;-7.16;84.76;97642.69;6219650;23;20020;-77
2021/12/20 06:26:42;;;;;;;3.30;3.10;;;;;;;-7.22;85.02;97637.75;6246952;23;20024;-75
2021/12/20 06:29:08;;;;;;;3.85;3.55;;;;;;;-7.26;84.07;97621.78;6245288;23;20027;-75
2021/12/20 06:31:34;;;;;;;3.85;3.55;;;;;;;-7.16;84.34;97657.88;6248106;23;20012;-75
2021/12/20 06:34:00;;;;;;;5.22;3.20;;;;;;;-7.21;83.91;97647.03;6222219;23;20027;-78
2021/12/20 06:36:29;;;;;;;2.92;2.63;;;;;;;-7.22;83.76;97642.81;6202327;23;20019;-79
2021/12/20 06:38:56;;;;;;;4.43;4.07;;;;;;;-7.18;83.83;97657.09;6222250;23;20073;-77
2021/12/20 06:41:23;;;;;;;6.28;5.28;;;;;;;-7.20;82.57;97658.84;6194443;23;20011;-78
2021/12/20 06:43:49;;;;;;;9.77;5.47;;;;;;;-7.27;82.48;97668.25;6171031;23;20047;-77
2021/12/20 06:46:17;;;;;;;6.18;4.10;;;;;;;-7.25;82.33;97673.28;6220598;23;20023;-78
2021/12/20 06:48:42;;;;;;;5.75;3.92;;;;;;;-7.28;82.56;97680.94;6220597;23;20020;-78
2021/12/20 06:51:08;;;;;;;4.15;3.75;;;;;;;-7.33;81.81;97685.28;6247762;23;20078;-78
2021/12/20 06:53:35;;;;;;;3.33;3.13;;;;;;;-7.35;81.98;97676.84;6220553;23;20024;-77
2021/12/20 06:56:01;;;;;;;3.80;3.58;;;;;;;-7.32;82.42;97679.31;6193712;23;20023;-75
2021/12/20 06:58:56;;;;;;;4.20;3.80;;;;;;;-7.30;82.52;97698.72;6217674;23;20400;-74
2021/12/20 07:01:22;;;;;;;4.82;3.53;;;;;;;-7.29;82.60;97691.94;6244791;23;20012;-75
2021/12/20 07:03:49;;;;;;;6.07;3.35;;;;;;;-7.36;81.73;97696.28;6194966;23;20070;-75
2021/12/20 07:06:16;;;;;;;3.65;3.35;;;;;;;-7.32;82.12;97709.72;6194400;23;20023;-75
2021/12/20 07:08:43;;;;;;;2.70;2.55;;;;;;;-7.32;82.43;97709.72;6242874;23;20020;-76
2021/12/20 07:11:10;;;;;;;3.78;3.47;;;;;;;-7.30;80.46;97721.53;6195261;23;20027;-75
2021/12/20 07:13:37;;;;;;;6.07;2.88;;;;;;;-7.31;80.50;97719.00;6220245;23;20121;-78
2021/12/20 07:16:04;;;;;;;4.35;3.95;;;;;;;-7.32;80.53;97723.22;6246517;23;20452;-78
2021/12/20 07:18:30;;;;;;;5.88;4.60;;;;;;;-7.49;80.78;97700.75;6172890;23;20552;-80
2021/12/20 07:20:57;;;;;;;6.28;4.85;;;;;;;-7.56;80.96;97703.44;6171388;23;20672;-80
2021/12/20 07:23:23;;;;;;;7.10;2.90;;;;;;;-7.31;81.15;97737.56;6191192;23;20020;-77
2021/12/20 07:25:51;;;;;;;9.02;4.93;;;;;;;-7.45;80.58;97726.84;6165410;23;20028;-78
2021/12/20 07:28:17;;;;;;;4.32;3.92;;;;;;;-7.36;79.74;97746.13;6191656;23;20069;-77
2021/12/20 07:30:46;;;;;;;3.90;3.60;;;;;;;-7.34;79.91;97739.34;6198243;23;20076;-78
2021/12/20 07:33:14;;;;;;;3.70;3.40;;;;;;;-7.27;80.22;97756.09;6221652;23;20028;-77
2021/12/20 07:35:44;;;;;;;4.00;3.40;;;;;;;-7.29;80.97;97763.72;6221895;23;20027;-75
2021/12/20 07:38:13;;;;;;;6.25;4.70;;;;;;;-7.43;80.60;97756.34;6247978;23;20023;-78
2021/12/20 07:40:47;;;;;;;4.82;4.43;;;;;;;-7.48;80.67;97748.00;6200303;23;20012;-80
2021/12/20 07:43:14;;;;;;;4.65;4.25;;;;;;;-7.44;80.65;97754.69;6224460;23;20016;-79
2021/12/20 07:45:41;;;;;;;6.50;3.60;;;;;;;-7.42;80.97;97762.25;6251759;23;20375;-79
2021/12/20 07:48:07;;;;;;;3.13;2.92;;;;;;;-7.39;80.68;97773.19;6250114;23;20071;-79
2021/12/20 07:50:34;;;;;;;4.72;4.13;;;;;;;-7.40;80.84;97781.66;6223435;23;20024;-80
2021/12/20 07:53:00;;;;;;;12.10;4.93;;;;;;;-7.43;81.18;97781.69;6250173;23;20079;-79
2021/12/20 07:55:26;;;;;;;3.28;3.03;;;;;;;-7.42;81.82;97793.50;6173206;23;20024;-78
2021/12/20 07:57:51;;;;;;;4.25;3.45;;;;;;;-7.44;80.87;97779.19;6247894;23;20016;-79
2021/12/20 08:00:19;;;;;;;5.30;4.60;;;;;;;-7.48;81.86;97793.59;6246872;23;20432;-78
2021/12/20 08:02:45;;;;;;;3.45;3.25;;;;;;;-7.47;82.02;97792.75;6219902;23;20467;-78
2021/12/20 08:05:13;;;;;;;5.28;3.72;;;;;;;-7.32;82.71;97806.00;6193359;23;20042;-78
2021/12/20 08:07:42;;;;;;;5.32;4.43;;;;;;;-7.47;82.43;97804.56;6232384;23;20016;-79
2021/12/20 08:10:08;;;;;;;3.75;3.40;;;;;;;-7.27;83.13;97807.59;6216337;23;20408;-79
2021/12/20 08:12:34;;;;;;;9.00;4.60;;;;;;;-7.33;81.72;97777.31;6216366;23;20020;-79
2021/12/20 08:15:01;;;;;;;4.43;4.00;;;;;;;-7.27;82.43;97811.84;6217084;23;20027;-79
2021/12/20 08:17:31;;;;;;;2.67;2.47;;;;;;;-7.58;81.56;97766.75;6245170;23;20023;-78
2021/12/20 08:19:57;;;;;;;3.75;2.95;;;;;;;-7.35;81.26;97800.97;6206563;23;20070;-79
2021/12/20 08:22:25;;;;;;;3.75;3.45;;;;;;;-7.25;80.83;97812.63;6222154;23;20016;-80
2021/12/20 08:24:56;;;;;;;4.10;3.80;;;;;;;-7.27;79.95;97827.03;6173887;23;20020;-79
2021/12/20 08:27:25;;;;;;;5.28;2.70;;;;;;;-7.31;80.45;97825.41;6227439;23;20057;-81
2021/12/20 11:35:46;;;;;;;6.35;3.78;;;;;;;-8.42;74.91;98092.66;6223295;22;20476;-77
2021/12/20 11:38:13;;;;;;;4.03;3.72;;;;;;;-8.47;75.37;98076.66;6212018;23;20055;-76
2021/12/20 11:40:39;;;;;;;5.45;3.17;;;;;;;-8.51;74.05;98093.53;6212597;23;20333;-76
2021/12/20 11:43:05;;;;;;;3.42;2.63;;;;;;;-8.46;72.99;98089.31;6186061;23;20074;-76
2021/12/20 11:45:33;;;;;;;3.88;3.60;;;;;;;-8.50;73.36;98110.41;6240118;23;20455;-77
2021/12/20 11:47:59;;;;;;;3.28;3.08;;;;;;;-8.44;73.05;98118.81;6190189;23;20023;-76
2021/12/20 11:50:36;;;;;;;5.20;3.78;;;;;;;-8.43;72.97;98106.13;6240956;23;20099;-77
2021/12/20 11:53:07;;;;;;;9.70;3.83;;;;;;;-8.50;72.54;98110.41;6211888;23;20016;-74
2021/12/20 11:55:34;;;;;;;3.55;3.25;;;;;;;-8.48;73.07;98118.00;6239525;23;20020;-76
2021/12/20 11:58:05;;;;;;;3.70;3.05;;;;;;;-8.49;73.16;98119.69;6241355;23;20120;-75
2021/12/20 12:00:31;;;;;;;4.03;3.72;;;;;;;-8.56;72.93;98118.03;6215843;23;20027;-76
2021/12/20 12:03:18;;;;;;;4.20;3.75;;;;;;;-8.67;73.83;98107.16;6245766;23;20051;-77
2021/12/20 12:05:54;;;;;;;3.20;2.95;;;;;;;-8.69;74.66;98133.28;6240866;23;20108;-76
2021/12/20 12:08:36;;;;;;;3.53;2.63;;;;;;;-8.64;75.00;98140.03;6222407;23;20050;-76
2021/12/20 12:11:08;;;;;;;4.78;4.32;;;;;;;-8.70;75.37;98134.97;6226759;23;20546;-76
2021/12/20 12:13:47;;;;;;;6.95;4.45;;;;;;;-8.76;75.41;98136.72;6253763;23;20016;-76
2021/12/20 12:16:37;;;;;;;5.00;4.45;;;;;;;-8.94;75.16;98126.72;6225950;23;20103;-76
2021/12/20 12:19:03;;;;;;;3.83;3.53;;;;;;;-9.00;74.91;98151.16;6174383;23;20021;-76
2021/12/20 12:21:38;;;;;;;3.13;2.92;;;;;;;-9.10;75.38;98162.19;6217370;23;20340;-77
2021/12/20 12:24:09;;;;;;;3.42;3.22;;;;;;;-9.09;75.36;98160.47;6219374;23;20026;-76
2021/12/20 12:26:42;;;;;;;3.42;3.10;;;;;;;-9.09;75.63;98173.09;6221516;23;20538;-76
2021/12/20 12:29:17;;;;;;;2.97;2.78;;;;;;;-9.20;75.90;98170.66;6222747;23;20399;-75
2021/12/20 12:31:49;;;;;;;4.65;3.80;;;;;;;-9.14;76.05;98170.63;6226554;23;20103;-77
2021/12/20 12:34:16;;;;;;;4.03;3.60;;;;;;;-9.18;76.00;98176.53;6228210;23;20476;-79
2021/12/20 12:36:42;;;;;;;3.63;3.38;;;;;;;-9.24;76.70;98173.19;6225594;23;20020;-78
2021/12/20 12:43:16;;;;;;;3.65;3.35;;;;;;;-9.37;75.03;98201.84;6212735;23;20016;-79
2021/12/20 12:46:02;;;;;;;3.90;3.60;;;;;;;-9.55;74.06;98193.47;6165680;23;20025;-79
2021/12/20 12:48:41;;;;;;;3.30;3.10;;;;;;;-9.53;74.16;98201.06;6216833;23;20027;-79
2021/12/20 12:51:19;;;;;;;3.42;3.22;;;;;;;-9.60;73.50;98191.81;6216541;23;20016;-79
2021/12/20 12:53:47;;;;;;;3.42;3.22;;;;;;;-9.74;73.59;98196.88;6216139;23;20031;-78
2021/12/20 12:56:25;;;;;;;3.47;3.28;;;;;;;-9.74;73.00;98212.03;6215223;23;20017;-80
2021/12/20 12:59:16;;;;;;;2.92;2.72;;;;;;;-9.75;73.17;98228.00;6211091;23;20519;-79
2021/12/20 13:01:57;;;;;;;3.50;3.30;;;;;;;-9.76;73.16;98221.28;6189573;23;20027;-79
2021/12/20 13:04:46;;;;;;;2.28;2.17;;;;;;;-9.79;73.06;98228.88;6164356;23;20368;-80
2021/12/20 13:07:17;;;;;;;3.30;3.10;;;;;;;-9.84;73.51;98237.25;6216155;23;20119;-81
2021/12/20 13:09:45;;;;;;;3.08;2.85;;;;;;;-9.93;73.50;98225.50;6196910;23;20020;-80
2021/12/20 13:12:17;;;;;;;2.97;2.78;;;;;;;-9.92;73.99;98249.91;6192527;23;20051;-80
2021/12/20 13:14:56;;;;;;;4.07;3.78;;;;;;;-9.88;73.60;98253.28;6237460;23;20395;-81
2021/12/20 13:17:34;;;;;;;3.55;3.25;;;;;;;-9.93;73.98;98248.22;6210972;23;20031;-78
2021/12/20 13:20:13;;;;;;;4.28;3.97;;;;;;;-9.99;74.42;98255.78;6212903;23;20020;-79
2021/12/20 13:22:39;;;;;;;3.22;3.03;;;;;;;-10.03;73.70;98259.13;6216529;23;20055;-80
2021/12/20 13:25:05;;;;;;;2.28;2.17;;;;;;;-9.94;73.87;98260.81;6188774;23;20024;-80
2021/12/20 13:27:32;;;;;;;4.57;4.18;;;;;;;-10.05;73.85;98268.41;6190593;23;20620;-80
2021/12/20 13:29:58;;;;;;;3.28;3.08;;;;;;;-10.06;73.91;98262.50;6216475;23;20070;-80
2021/12/20 13:32:24;;;;;;;2.55;2.45;;;;;;;-10.05;74.10;98273.44;6219742;23;20020;-80
2021/12/20 13:34:50;;;;;;;3.28;3.08;;;;;;;-10.09;74.25;98274.28;6215647;23;20025;-80
2021/12/20 13:37:17;;;;;;;3.45;3.25;;;;;;;-10.18;73.54;98269.25;6162480;23;20029;-78
2021/12/20 13:39:54;;;;;;;3.85;3.50;;;;;;;-10.14;73.23;98291.94;6197353;23;20013;-82
2021/12/20 13:42:20;;;;;;;5.63;3.28;;;;;;;-10.19;73.78;98290.25;6180674;23;20121;-80
2021/12/20 13:44:47;;;;;;;3.22;3.03;;;;;;;-10.21;74.12;98274.28;6204562;23;20024;-79
2021/12/20 13:47:16;;;;;;;3.90;3.60;;;;;;;-10.21;74.10;98294.47;6202925;23;20021;-80
2021/12/20 13:49:43;;;;;;;4.10;3.72;;;;;;;-10.29;73.56;98294.44;6175583;23;20040;-79
2021/12/20 13:52:10;;;;;;;4.13;3.58;;;;;;;-10.27;73.47;98299.47;6200741;23;20065;-79
2021/12/20 13:54:44;;;;;;;3.13;2.92;;;;;;;-10.22;74.25;98307.91;6171938;23;20017;-79
2021/12/20 13:57:19;;;;;;;2.85;2.65;;;;;;;-10.24;74.39;98304.56;6200038;23;20055;-79
2021/12/20 13:59:58;;;;;;;4.60;4.20;;;;;;;-10.33;75.60;98296.94;6178442;23;20021;-78
2021/12/20 14:02:26;;;;;;;5.13;4.72;;;;;;;-10.35;75.88;98308.72;6176654;23;20025;-80
2021/12/20 14:04:54;;;;;;;3.35;3.13;;;;;;;-10.44;76.20;98296.09;6200951;23;20016;-79
2021/12/20 14:07:38;;;;;;;3.83;3.47;;;;;;;-10.38;75.99;98316.28;6191387;23;20043;-80
2021/12/20 14:10:13;;;;;;;6.22;4.97;;;;;;;-10.43;75.90;98328.00;6188763;23;20020;-80
2021/12/20 14:12:54;;;;;;;4.57;4.18;;;;;;;-10.40;75.53;98317.97;6186348;23;20017;-80
2021/12/20 14:15:25;;;;;;;4.80;3.90;;;;;;;-10.51;75.69;98309.50;6191734;23;20370;-81
2021/12/20 14:18:00;;;;;;;5.05;4.47;;;;;;;-10.49;76.28;98303.63;6191735;23;20064;-82
2021/12/20 14:20:38;;;;;;;5.85;5.32;;;;;;;-10.52;76.08;98320.41;6192066;23;20473;-79
2021/12/20 14:23:09;;;;;;;4.68;4.30;;;;;;;-10.58;76.57;98318.72;6194163;23;20013;-81
2021/12/20 14:25:37;;;;;;;5.65;5.15;;;;;;;-10.51;75.54;98324.63;6142894;23;20044;-82
2021/12/20 14:28:12;;;;;;;6.05;5.38;;;;;;;-10.57;75.25;98310.34;6192310;23;20064;-80
2021/12/20 14:30:55;;;;;;;8.63;7.82;;;;;;;-10.71;74.90;98297.69;6191624;23;20420;-82
2021/12/20 14:33:47;;;;;;;8.73;7.35;;;;;;;-10.64;74.84;98331.31;6195090;23;20017;-81
2021/12/20 14:36:15;;;;;;;9.93;7.10;;;;;;;-10.67;74.85;98334.66;6194387;23;20025;-81
2021/12/20 14:38:46;;;;;;;5.57;4.85;;;;;;;-10.67;74.68;98347.28;6197788;23;20020;-82
2021/12/20 14:41:18;;;;;;;8.60;6.57;;;;;;;-10.72;74.89;98341.34;6151253;23;20381;-82
2021/12/20 14:43:44;;;;;;;7.47;5.82;;;;;;;-10.71;75.16;98348.09;6198421;23;20151;-83
2021/12/20 14:46:48;;;;;;;6.72;3.88;;;;;;;-10.71;75.48;98358.16;6200519;23;20047;-81
2021/12/20 14:49:22;;;;;;;14.77;9.50;;;;;;;-10.70;75.27;98359.00;6214236;23;20017;-80
2021/12/20 14:51:48;;;;;;;10.65;6.63;;;;;;;-10.77;74.23;98347.22;6191957;23;20016;-80
2021/12/20 14:54:19;;;;;;;6.68;6.07;;;;;;;-10.78;74.21;98350.56;6214006;23;20017;-81
2021/12/20 14:56:51;;;;;;;6.35;5.80;;;;;;;-10.82;73.33;98354.72;6243366;23;20032;-79
2021/12/20 14:59:18;;;;;;;6.07;5.47;;;;;;;-10.83;73.64;98358.06;6186273;23;20021;-79
2021/12/20 15:01:44;;;;;;;6.00;5.00;;;;;;;-10.91;73.46;98349.66;6211823;23;20024;-78